createdAt,value
2019-06-08T00:07:27.301Z,99.9
2019-06-08T00:17:39.365Z,99.9
2019-06-08T00:27:42.907Z,99.9
2019-06-08T00:37:46.338Z,99.9
2019-06-08T00:47:49.804Z,99.9
2019-06-08T00:57:53.295Z,99.9
2019-06-08T01:07:56.731Z,99.9
2019-06-08T01:18:04.457Z,99.9
2019-06-08T01:28:07.935Z,99.9
2019-06-08T01:38:11.426Z,99.9
2019-06-08T01:48:20.989Z,99.9
2019-06-08T01:58:25.787Z,99.9
2019-06-08T02:08:30.807Z,99.9
2019-06-08T02:18:50.990Z,99.9
2019-06-08T02:28:54.785Z,99.9
2019-06-08T02:38:58.252Z,99.9
2019-06-08T02:49:05.040Z,99.9
2019-06-08T02:59:08.762Z,99.9
2019-06-08T03:09:12.230Z,99.9
2019-06-08T03:19:23.146Z,99.9
2019-06-08T03:29:26.686Z,99.9
2019-06-08T03:39:30.142Z,99.9
2019-06-08T03:49:56.241Z,99.9
2019-06-08T04:00:01.324Z,99.9
2019-06-08T04:10:04.773Z,99.9
2019-06-08T04:20:12.480Z,99.9
2019-06-08T04:30:16.188Z,99.9
2019-06-08T04:40:19.685Z,99.9
2019-06-08T04:50:24.488Z,99.9
2019-06-08T05:00:31.610Z,99.9
2019-06-08T05:10:35.102Z,99.9
2019-06-08T05:20:43.882Z,99.9
2019-06-08T05:30:54.397Z,99.9
2019-06-08T05:40:57.842Z,99.9
2019-06-08T05:51:04.666Z,99.9
2019-06-08T06:01:08.183Z,99.9
2019-06-08T06:11:11.679Z,99.9
2019-06-08T06:21:15.134Z,99.9
2019-06-08T06:31:18.563Z,99.9
2019-06-08T06:41:22.053Z,97.8
2019-06-08T06:51:27.023Z,91.7
2019-06-08T07:01:30.501Z,81.6
2019-06-08T07:11:34.016Z,79.6
2019-06-08T07:21:42.321Z,73.3
2019-06-08T07:31:48.661Z,68.1
2019-06-08T07:41:56.714Z,64.2
2019-06-08T07:52:10.993Z,63.4
2019-06-08T08:02:14.600Z,59.3
2019-06-08T08:12:18.071Z,55.3
2019-06-08T08:22:29.349Z,53.8
2019-06-08T08:32:33.260Z,52.6
2019-06-08T08:42:39.081Z,51.9
2019-06-08T08:52:42.643Z,50.7
2019-06-08T09:02:46.089Z,49.9
2019-06-08T09:12:58.113Z,49.3
2019-06-08T09:23:19.417Z,48.5
2019-06-08T09:33:25.514Z,50.1
2019-06-08T09:43:29.224Z,49.4
2019-06-08T09:53:41.356Z,49.2
2019-06-08T10:03:48.398Z,46.9
2019-06-08T10:13:51.881Z,49
2019-06-08T10:24:02.276Z,46.4
2019-06-08T10:34:12.717Z,46
2019-06-08T10:44:18.538Z,48.3
2019-06-08T10:54:22.091Z,47.3
2019-06-08T11:04:25.726Z,47.6
2019-06-08T11:14:32.066Z,43.5
2019-06-08T11:24:35.592Z,47.3
2019-06-08T11:34:42.221Z,46.2
2019-06-08T11:44:51.479Z,43.7
2019-06-08T11:55:02.107Z,43.9
2019-06-08T12:05:14.278Z,41
2019-06-08T12:15:21.332Z,42.9
2019-06-08T12:25:24.825Z,42.8
2019-06-08T12:35:28.544Z,44.7
2019-06-08T12:45:31.987Z,44
2019-06-08T12:55:37.849Z,43.2
2019-06-08T13:05:41.300Z,41.2
2019-06-08T13:15:44.755Z,40
2019-06-08T13:25:48.432Z,41
2019-06-08T13:35:51.909Z,39.3
2019-06-08T13:45:58.524Z,43.1
2019-06-08T13:56:01.971Z,41.1
2019-06-08T14:06:07.839Z,41.9
2019-06-08T14:16:11.819Z,39.4
2019-06-08T14:26:15.312Z,41.5
2019-06-08T14:36:24.084Z,41.8
2019-06-08T14:46:32.008Z,42.3
2019-06-08T14:56:37.640Z,39.1
2019-06-08T15:06:41.093Z,40.2
2019-06-08T15:16:44.587Z,41.8
2019-06-08T15:26:49.030Z,40.2
2019-06-08T15:36:52.580Z,40.9
2019-06-08T15:46:58.664Z,38.9
2019-06-08T15:57:02.143Z,39
2019-06-08T16:07:05.962Z,42.1
2019-06-08T16:17:09.747Z,41.3
2019-06-08T16:27:13.178Z,39.5
2019-06-08T16:37:16.657Z,38.6
2019-06-08T16:57:29.037Z,39.6
2019-06-08T17:07:33.782Z,41.5
2019-06-08T17:17:38.685Z,37.8
2019-06-08T17:27:42.165Z,38.6
2019-06-08T17:37:45.626Z,40.5
2019-06-08T17:47:49.121Z,38.7
2019-06-08T17:57:53.940Z,40.8
2019-06-08T18:07:58.063Z,40.5
2019-06-08T18:18:01.537Z,43.1
2019-06-08T18:28:13.531Z,38.3
2019-06-08T18:38:18.134Z,41
2019-06-08T18:48:21.567Z,45.4
2019-06-08T18:58:27.917Z,48.3
2019-06-08T19:08:31.491Z,47.3
2019-06-08T19:18:34.943Z,49.8
2019-06-08T19:28:53.874Z,50.3
2019-06-08T19:38:57.960Z,46.6
2019-06-08T19:49:01.400Z,45.8
2019-06-08T19:59:08.605Z,48.3
2019-06-08T20:09:12.085Z,48.8
2019-06-08T20:19:17.790Z,49.5
2019-06-08T20:29:21.245Z,49.6
2019-06-08T20:39:24.676Z,50.7
2019-06-08T20:49:30.719Z,50.6
2019-06-08T20:59:34.629Z,47.3
2019-06-08T21:09:47.066Z,49
2019-06-08T21:19:58.300Z,51.2
2019-06-08T21:30:20.189Z,51.7
2019-06-08T21:40:28.404Z,51.9
2019-06-08T21:50:31.868Z,53.1
2019-06-08T22:00:43.451Z,53.4
2019-06-08T22:10:47.335Z,54.4
2019-06-08T22:20:53.179Z,55.9
2019-06-08T22:31:01.657Z,56
2019-06-08T22:41:07.844Z,54.1
2019-06-08T22:51:11.626Z,54.6
2019-06-08T23:01:15.081Z,54.7
2019-06-08T23:11:18.478Z,54.9
2019-06-08T23:21:21.908Z,55.5
2019-06-08T23:31:29.207Z,55.2
2019-06-08T23:41:32.740Z,55
2019-06-08T23:51:38.263Z,55.6
